createdAt,value
2022-10-08T00:00:35.302Z,86.68
2022-10-08T00:01:37.995Z,86.78
2022-10-08T00:02:41.344Z,87.02
2022-10-08T00:03:45.985Z,87.17
2022-10-08T00:04:49.605Z,87.06
2022-10-08T00:05:57.393Z,87.08
2022-10-08T00:07:00.898Z,87.11
2022-10-08T00:08:04.819Z,86.86
2022-10-08T00:09:08.326Z,86.65
2022-10-08T00:10:12.340Z,86.22
2022-10-08T00:11:19.719Z,87.18
2022-10-08T00:12:26.047Z,88.03
2022-10-08T00:13:32.800Z,88.56
2022-10-08T00:14:39.784Z,88.92
2022-10-08T00:15:47.348Z,89.14
2022-10-08T00:16:50.824Z,88.86
2022-10-08T00:17:53.730Z,88.70
2022-10-08T00:19:01.220Z,88.57
2022-10-08T00:20:05.510Z,88.54
2022-10-08T00:21:11.903Z,88.71
2022-10-08T00:22:19.918Z,88.49
2022-10-08T00:23:24.494Z,88.48
2022-10-08T00:24:27.476Z,88.40
2022-10-08T00:25:31.083Z,88.30
2022-10-08T00:26:39.753Z,87.83
2022-10-08T00:27:43.007Z,88.02
2022-10-08T00:28:47.254Z,87.48
2022-10-08T00:29:53.667Z,87.21
2022-10-08T00:30:57.279Z,87.32
2022-10-08T00:32:03.376Z,87.57
2022-10-08T00:33:10.582Z,87.70
2022-10-08T00:34:16.883Z,87.78
2022-10-08T00:35:20.489Z,87.75
2022-10-08T00:36:25.029Z,87.60
2022-10-08T00:37:28.220Z,89.08
2022-10-08T00:38:32.281Z,89.72
2022-10-08T00:39:35.658Z,89.80
2022-10-08T00:40:45.251Z,89.55
2022-10-08T00:41:49.031Z,89.53
2022-10-08T00:42:53.369Z,89.14
2022-10-08T00:43:58.127Z,89.24
2022-10-08T00:45:02.155Z,89.10
2022-10-08T00:46:07.123Z,88.87
2022-10-08T00:47:20.758Z,88.56
2022-10-08T00:48:25.110Z,88.22
2022-10-08T00:49:28.291Z,88.16
2022-10-08T00:50:34.522Z,88.42
2022-10-08T00:51:38.747Z,88.46
2022-10-08T00:52:44.667Z,89.02
2022-10-08T00:53:48.266Z,89.14
2022-10-08T00:54:51.990Z,89.19
2022-10-08T00:55:55.274Z,89.46
2022-10-08T00:56:58.674Z,89.56
2022-10-08T00:58:10.033Z,89.64
2022-10-08T00:59:13.835Z,89.64
2022-10-08T01:00:19.227Z,89.66
2022-10-08T01:01:22.288Z,89.49
2022-10-08T01:02:27.530Z,89.21
2022-10-08T01:03:31.310Z,89.28
2022-10-08T01:04:36.379Z,89.13
2022-10-08T01:05:47.395Z,89.11
2022-10-08T01:07:04.582Z,89.67
2022-10-08T01:08:10.603Z,89.43
2022-10-08T01:09:18.924Z,89.22
2022-10-08T01:10:37.877Z,89.06
2022-10-08T01:11:50.362Z,89.13
2022-10-08T01:12:59.721Z,88.50
2022-10-08T01:14:04.718Z,88.24
2022-10-08T01:15:12.359Z,88.31
2022-10-08T01:16:18.579Z,88.11
2022-10-08T01:17:29.388Z,87.94
2022-10-08T01:18:35.001Z,87.69
2022-10-08T01:19:43.508Z,88.12
2022-10-08T01:20:49.218Z,87.74
2022-10-08T01:21:58.114Z,88.46
2022-10-08T01:23:21.400Z,87.12
2022-10-08T01:25:00.436Z,86.01
2022-10-08T01:26:08.728Z,86.36
2022-10-08T01:28:42.595Z,86.78
2022-10-08T01:29:47.863Z,86.98
2022-10-08T01:30:56.159Z,86.94
2022-10-08T01:32:04.583Z,86.87
2022-10-08T01:33:11.640Z,86.87
2022-10-08T01:34:18.418Z,87.10
2022-10-08T01:35:25.565Z,87.29
2022-10-08T01:36:30.302Z,87.72
2022-10-08T01:37:36.879Z,87.74
2022-10-08T01:38:42.880Z,88.21
2022-10-08T01:39:47.956Z,88.56
2022-10-08T01:40:53.732Z,88.93
2022-10-08T01:41:57.848Z,89.22
2022-10-08T01:43:03.480Z,89.37
2022-10-08T01:44:11.863Z,89.46
2022-10-08T01:45:18.307Z,89.43
2022-10-08T01:46:23.457Z,89.59
2022-10-08T01:47:30.474Z,88.85
2022-10-08T01:48:36.325Z,88.52
2022-10-08T01:49:43.914Z,88.58
2022-10-08T01:50:49.047Z,89.62
2022-10-08T01:51:55.511Z,90.10
2022-10-08T01:53:00.573Z,90.18
2022-10-08T01:54:05.025Z,89.97
2022-10-08T01:55:11.132Z,90.24
2022-10-08T01:56:18.907Z,90.16
2022-10-08T01:57:23.059Z,90.05
2022-10-08T01:58:46.908Z,90.09
2022-10-08T01:59:53.115Z,90.25
2022-10-08T02:00:58.990Z,90.59
2022-10-08T02:02:04.164Z,90.75
2022-10-08T02:03:10.774Z,90.59
2022-10-08T02:04:32.348Z,90.52
2022-10-08T02:05:36.996Z,90.61
2022-10-08T02:06:41.634Z,90.60
2022-10-08T02:07:44.011Z,90.27
2022-10-08T02:08:47.725Z,91.29
2022-10-08T02:09:53.101Z,90.84
2022-10-08T02:10:55.768Z,90.61
2022-10-08T02:11:59.052Z,90.58
2022-10-08T02:13:02.790Z,90.58
2022-10-08T02:14:07.937Z,91.81
2022-10-08T02:15:24.116Z,91.47
2022-10-08T02:16:29.240Z,91.63
2022-10-08T02:17:54.507Z,91.55
2022-10-08T02:18:59.797Z,90.90
2022-10-08T02:20:11.803Z,91.64
2022-10-08T02:21:20.071Z,92.41
2022-10-08T02:22:26.820Z,93.02
2022-10-08T02:23:34.138Z,93.81
2022-10-08T02:24:39.087Z,93.02
2022-10-08T02:25:48.499Z,92.08
2022-10-08T02:26:53.889Z,91.08
2022-10-08T02:28:14.674Z,90.12
2022-10-08T02:29:30.958Z,90.31
2022-10-08T02:30:35.633Z,91.27
2022-10-08T02:31:58.940Z,91.65
2022-10-08T02:33:08.847Z,92.38
2022-10-08T02:34:30.434Z,90.94
2022-10-08T02:35:38.326Z,90.44
2022-10-08T02:36:44.965Z,89.66
2022-10-08T02:37:50.560Z,89.44
2022-10-08T02:38:55.946Z,89.30
2022-10-08T02:40:00.494Z,89.67
2022-10-08T02:41:04.618Z,89.61
2022-10-08T02:42:10.749Z,89.74
2022-10-08T02:43:16.870Z,89.55
2022-10-08T02:44:22.127Z,89.62
2022-10-08T02:45:27.166Z,89.48
2022-10-08T02:46:31.557Z,89.67
2022-10-08T02:47:38.493Z,89.36
2022-10-08T02:48:45.130Z,89.10
2022-10-08T02:49:52.237Z,88.96
2022-10-08T02:50:58.652Z,88.59
2022-10-08T02:52:04.257Z,88.15
2022-10-08T02:53:08.458Z,88.24
2022-10-08T02:54:14.155Z,88.14
2022-10-08T02:55:25.599Z,88.42
2022-10-08T02:56:35.892Z,88.74
2022-10-08T02:57:44.306Z,88.73
2022-10-08T02:58:48.126Z,88.86
2022-10-08T02:59:53.405Z,89.08
2022-10-08T03:01:00.578Z,89.14
2022-10-08T03:02:05.082Z,89.37
2022-10-08T03:03:09.507Z,88.99
2022-10-08T03:04:26.783Z,89.21
2022-10-08T03:05:31.562Z,89.11
2022-10-08T03:06:35.522Z,89.08
2022-10-08T03:07:37.775Z,89.28
2022-10-08T03:08:43.056Z,89.37
2022-10-08T03:09:48.137Z,88.94
2022-10-08T03:10:52.271Z,88.69
2022-10-08T03:11:55.670Z,88.89
2022-10-08T03:13:03.044Z,89.36
2022-10-08T03:14:08.631Z,89.65
2022-10-08T03:15:14.887Z,89.52
2022-10-08T03:16:19.745Z,89.70
2022-10-08T03:17:24.987Z,89.77
2022-10-08T03:18:28.491Z,89.99
2022-10-08T03:19:33.192Z,90.43
2022-10-08T03:20:46.481Z,90.66
2022-10-08T03:21:52.779Z,90.53
2022-10-08T03:22:57.028Z,91.21
2022-10-08T03:23:59.558Z,91.21
2022-10-08T03:25:02.890Z,91.32
2022-10-08T03:26:05.246Z,91.68
2022-10-08T03:27:09.390Z,91.86
2022-10-08T03:28:18.061Z,91.99
2022-10-08T03:29:22.351Z,91.73
2022-10-08T03:30:26.008Z,91.48
2022-10-08T03:31:28.434Z,91.15
2022-10-08T03:32:33.515Z,91.02
2022-10-08T03:33:36.883Z,91.02
2022-10-08T03:34:41.050Z,90.85
2022-10-08T03:35:45.049Z,90.99
2022-10-08T03:36:48.558Z,91.16
2022-10-08T03:37:52.898Z,90.86
2022-10-08T03:38:56.403Z,91.67
2022-10-08T03:39:59.794Z,91.01
2022-10-08T03:41:03.622Z,92.61
2022-10-08T03:42:07.533Z,93.31
2022-10-08T03:43:11.990Z,93.10
2022-10-08T03:44:15.599Z,92.66
2022-10-08T03:45:18.370Z,92.89
2022-10-08T03:46:22.275Z,92.87
2022-10-08T03:47:25.410Z,93.50
2022-10-08T03:48:30.444Z,94.72
2022-10-08T03:49:34.070Z,94.48
2022-10-08T03:50:38.540Z,93.93
2022-10-08T03:51:44.615Z,92.93
2022-10-08T03:52:48.348Z,92.20
2022-10-08T03:53:52.054Z,91.81
2022-10-08T03:54:55.454Z,91.37
2022-10-08T03:56:01.630Z,91.18
2022-10-08T03:57:05.273Z,91.25
2022-10-08T03:58:07.744Z,91.14
2022-10-08T03:59:10.281Z,90.77
2022-10-08T04:00:13.385Z,90.69
2022-10-08T04:01:17.962Z,90.81
2022-10-08T04:02:21.387Z,90.91
2022-10-08T04:03:24.955Z,90.79
2022-10-08T04:04:28.111Z,91.12
2022-10-08T04:05:31.443Z,91.02
2022-10-08T04:06:33.800Z,90.98
2022-10-08T04:07:37.188Z,90.73
2022-10-08T04:08:44.331Z,90.72
2022-10-08T04:09:47.865Z,90.58
2022-10-08T04:10:53.396Z,90.76
2022-10-08T04:11:57.173Z,91.15
2022-10-08T04:13:02.026Z,91.95
2022-10-08T04:14:05.852Z,91.38
2022-10-08T04:15:10.365Z,91.14
2022-10-08T04:16:16.831Z,90.69
2022-10-08T04:17:20.118Z,90.80
2022-10-08T04:18:24.397Z,91.41
2022-10-08T04:19:27.232Z,91.03
2022-10-08T04:20:30.785Z,90.84
2022-10-08T04:21:35.401Z,90.54
2022-10-08T04:22:38.697Z,91.47
2022-10-08T04:23:42.731Z,92.06
2022-10-08T04:24:49.668Z,92.42
2022-10-08T04:25:53.599Z,93.20
2022-10-08T04:26:56.050Z,93.24
2022-10-08T04:27:59.706Z,92.50
2022-10-08T04:29:03.593Z,91.48
2022-10-08T04:30:07.615Z,90.78
2022-10-08T04:31:13.063Z,90.38
2022-10-08T04:32:17.129Z,89.85
2022-10-08T04:33:19.705Z,89.50
2022-10-08T04:34:22.370Z,89.34
2022-10-08T04:35:30.039Z,89.03
2022-10-08T04:36:33.557Z,88.88
2022-10-08T04:37:36.898Z,88.92
2022-10-08T04:38:39.627Z,89.15
2022-10-08T04:39:43.759Z,90.49
2022-10-08T04:40:46.223Z,90.69
2022-10-08T04:41:49.715Z,90.18
2022-10-08T04:42:55.632Z,89.49
2022-10-08T04:44:00.630Z,89.22
2022-10-08T04:45:06.172Z,87.90
2022-10-08T04:46:10.692Z,86.48
2022-10-08T04:47:16.436Z,84.96
2022-10-08T04:48:18.787Z,84.22
2022-10-08T04:49:22.509Z,85.19
2022-10-08T04:50:26.120Z,84.98
2022-10-08T04:51:31.922Z,84.96
2022-10-08T04:52:38.369Z,84.99
2022-10-08T04:53:41.126Z,85.62
2022-10-08T04:54:44.738Z,86.67
2022-10-08T04:55:48.240Z,87.49
2022-10-08T04:56:51.851Z,87.86
2022-10-08T04:57:54.103Z,88.31
2022-10-08T04:58:58.243Z,88.55
2022-10-08T05:00:17.784Z,88.75
2022-10-08T05:01:09.129Z,87.41
2022-10-08T05:02:15.373Z,87.36
2022-10-08T05:03:18.727Z,87.14
2022-10-08T05:04:22.025Z,86.70
2022-10-08T05:05:25.310Z,87.03
2022-10-08T05:06:30.288Z,86.80
2022-10-08T05:07:33.794Z,86.77
2022-10-08T05:08:37.507Z,86.85
2022-10-08T05:09:45.043Z,87.07
2022-10-08T05:10:49.113Z,88.38
2022-10-08T05:11:55.751Z,88.73
2022-10-08T05:12:58.211Z,88.55
2022-10-08T05:14:02.139Z,88.51
2022-10-08T05:15:05.569Z,87.55
2022-10-08T05:16:10.900Z,87.39
2022-10-08T05:17:14.203Z,87.69
2022-10-08T05:18:17.396Z,87.20
2022-10-08T05:19:20.912Z,87.29
2022-10-08T05:20:23.180Z,87.17
2022-10-08T05:21:28.816Z,88.56
2022-10-08T05:22:31.218Z,89.50
2022-10-08T05:23:37.290Z,89.67
2022-10-08T05:25:54.360Z,89.78
2022-10-08T05:26:59.742Z,88.73
2022-10-08T05:28:03.325Z,87.74
2022-10-08T05:29:07.812Z,87.51
2022-10-08T05:30:11.918Z,86.41
2022-10-08T05:31:15.629Z,85.60
2022-10-08T05:32:18.941Z,84.85
2022-10-08T05:33:21.622Z,85.02
2022-10-08T05:34:26.484Z,84.37
2022-10-08T05:35:29.665Z,85.33
2022-10-08T05:36:34.111Z,85.21
2022-10-08T05:37:37.726Z,85.33
2022-10-08T05:38:41.851Z,85.22
2022-10-08T05:39:44.639Z,84.88
2022-10-08T05:40:48.680Z,83.50
2022-10-08T05:41:53.604Z,82.97
2022-10-08T05:42:57.690Z,82.98
2022-10-08T05:44:03.032Z,83.22
2022-10-08T05:45:06.434Z,83.32
2022-10-08T05:46:11.962Z,83.32
2022-10-08T05:47:15.263Z,83.33
2022-10-08T05:48:17.585Z,83.59
2022-10-08T05:49:21.914Z,82.91
2022-10-08T05:50:24.742Z,82.78
2022-10-08T05:51:29.238Z,82.87
2022-10-08T05:52:32.429Z,82.52
2022-10-08T05:53:37.083Z,82.35
2022-10-08T05:54:39.862Z,80.49
2022-10-08T05:55:44.880Z,79.86
2022-10-08T05:56:48.236Z,79.87
2022-10-08T05:57:52.775Z,80.71
2022-10-08T05:58:57.750Z,80.27
2022-10-08T06:00:02.306Z,79.67
2022-10-08T06:01:09.698Z,79.81
2022-10-08T06:02:13.269Z,79.93
2022-10-08T06:03:17.097Z,79.75
2022-10-08T06:04:20.896Z,79.96
2022-10-08T06:05:26.123Z,80.50
2022-10-08T06:06:35.540Z,79.84
2022-10-08T06:07:39.985Z,79.18
2022-10-08T06:08:44.375Z,78.79
2022-10-08T06:09:51.205Z,79.28
2022-10-08T06:10:55.245Z,79.95
2022-10-08T06:12:02.082Z,80.13
2022-10-08T06:13:05.344Z,80.09
2022-10-08T06:14:10.638Z,79.24
2022-10-08T06:15:14.770Z,78.79
2022-10-08T06:16:17.465Z,78.19
2022-10-08T06:17:23.342Z,77.71
2022-10-08T06:18:28.822Z,77.18
2022-10-08T06:19:35.472Z,76.48
2022-10-08T06:20:40.787Z,76.17
2022-10-08T06:21:44.049Z,76.67
2022-10-08T06:22:49.481Z,76.67
2022-10-08T06:23:54.924Z,75.83
2022-10-08T06:25:01.039Z,75.23
2022-10-08T06:26:05.681Z,74.99
2022-10-08T06:27:09.615Z,72.12
2022-10-08T06:28:12.767Z,69.35
2022-10-08T06:29:18.329Z,68.93
2022-10-08T06:30:23.576Z,67.22
2022-10-08T06:31:29.235Z,65.61
2022-10-08T06:32:32.676Z,65.13
2022-10-08T06:33:36.285Z,65.22
2022-10-08T06:34:42.478Z,65.33
2022-10-08T06:35:46.627Z,64.12
2022-10-08T06:36:49.924Z,62.28
2022-10-08T06:37:57.500Z,62.93
2022-10-08T06:39:02.023Z,63.01
2022-10-08T06:40:05.868Z,62.11
2022-10-08T06:41:09.305Z,59.99
2022-10-08T06:42:12.888Z,57.01
2022-10-08T06:43:18.306Z,55.03
2022-10-08T06:44:22.092Z,52.60
2022-10-08T06:45:25.065Z,49.84
2022-10-08T06:46:29.704Z,46.96
2022-10-08T06:47:33.452Z,43.76
2022-10-08T06:48:37.157Z,40.70
2022-10-08T06:49:41.602Z,39.11
2022-10-08T06:50:45.315Z,39.01
2022-10-08T06:51:50.700Z,37.48
2022-10-08T06:52:54.000Z,35.78
2022-10-08T06:54:02.882Z,34.64
2022-10-08T06:55:03.931Z,33.08
2022-10-08T06:56:08.766Z,33.11
2022-10-08T06:57:13.126Z,31.73
2022-10-08T06:58:16.350Z,31.25
2022-10-08T06:59:21.596Z,31.28
2022-10-08T07:00:24.786Z,30.27
2022-10-08T07:01:33.243Z,29.44
2022-10-08T07:02:35.106Z,28.80
2022-10-08T07:03:38.656Z,28.19
2022-10-08T07:04:42.787Z,29.67
2022-10-08T07:05:46.176Z,28.65
2022-10-08T07:06:51.468Z,29.19
2022-10-08T07:07:57.550Z,28.26
2022-10-08T07:09:01.688Z,27.47
2022-10-08T07:10:05.501Z,26.80
2022-10-08T07:11:11.963Z,26.17
2022-10-08T07:12:14.946Z,26.57
2022-10-08T07:13:18.106Z,27.22
2022-10-08T07:14:21.711Z,27.22
2022-10-08T07:15:26.077Z,26.80
2022-10-08T07:16:29.459Z,27.45
2022-10-08T07:17:33.193Z,26.58
2022-10-08T07:18:38.314Z,27.67
2022-10-08T07:19:42.824Z,27.40
2022-10-08T07:20:48.108Z,27.74
2022-10-08T07:21:51.503Z,26.02
2022-10-08T07:22:53.745Z,26.46
2022-10-08T07:23:57.042Z,26.59
2022-10-08T07:25:01.340Z,26.57
2022-10-08T07:26:06.348Z,25.49
2022-10-08T07:27:09.552Z,26.05
2022-10-08T07:28:12.902Z,26.93
2022-10-08T07:29:17.606Z,25.57
2022-10-08T07:30:23.513Z,24.79
2022-10-08T07:55:51.710Z,24.70
2022-10-08T07:56:56.287Z,23.57
2022-10-08T07:58:02.475Z,23.57
2022-10-08T07:59:09.321Z,23.86
2022-10-08T08:00:13.042Z,23.23
2022-10-08T08:01:17.822Z,23.13
2022-10-08T08:02:22.186Z,23.01
2022-10-08T08:03:24.915Z,23.13
2022-10-08T08:04:27.266Z,23.18
2022-10-08T08:05:31.813Z,23.35
2022-10-08T08:06:37.959Z,24.40
2022-10-08T08:07:41.435Z,24.91
2022-10-08T08:08:46.749Z,24.67
2022-10-08T08:09:50.534Z,24.46
2022-10-08T08:10:57.654Z,24.43
2022-10-08T08:12:03.943Z,23.86
2022-10-08T08:13:09.400Z,23.21
2022-10-08T08:14:12.795Z,24.16
2022-10-08T08:15:15.985Z,24.42
2022-10-08T08:16:21.098Z,23.44
2022-10-08T08:17:23.830Z,23.80
2022-10-08T08:18:31.629Z,23.87
2022-10-08T08:19:36.414Z,24.88
2022-10-08T08:20:39.787Z,24.85
2022-10-08T08:21:43.501Z,26.45
2022-10-08T08:22:49.100Z,25.22
2022-10-08T08:23:54.051Z,25.33
2022-10-08T08:24:57.775Z,25.05
2022-10-08T08:26:02.244Z,27.76
2022-10-08T08:27:05.622Z,27.08
2022-10-08T08:28:08.958Z,28.84
2022-10-08T08:29:17.646Z,28.11
2022-10-08T08:30:20.311Z,28.82
2022-10-08T08:31:25.153Z,29.68
2022-10-08T08:32:28.727Z,29.25
2022-10-08T08:33:31.550Z,30.10
2022-10-08T08:34:37.827Z,31.79
2022-10-08T08:35:41.237Z,33.28
2022-10-08T08:36:45.834Z,32.19
2022-10-08T08:37:50.700Z,30.79
2022-10-08T08:38:55.703Z,32.23
2022-10-08T08:39:58.325Z,31.61
2022-10-08T08:41:21.476Z,31.82
2022-10-08T08:42:31.211Z,34.38
2022-10-08T08:43:35.588Z,33.38
2022-10-08T08:44:47.138Z,33.15
2022-10-08T08:45:51.523Z,33.06
2022-10-08T08:46:58.636Z,33.51
2022-10-08T08:48:18.739Z,34.78
2022-10-08T08:49:23.936Z,34.29
2022-10-08T08:50:31.910Z,34.80
2022-10-08T08:51:35.624Z,33.73
2022-10-08T08:52:41.637Z,33.88
2022-10-08T08:53:46.013Z,33.54
2022-10-08T08:54:50.436Z,34.89
2022-10-08T08:55:56.339Z,33.91
2022-10-08T08:57:05.277Z,34.86
2022-10-08T08:58:11.160Z,35.00
2022-10-08T08:59:19.599Z,34.98
2022-10-08T09:00:24.580Z,35.33
2022-10-08T09:01:39.081Z,36.17
2022-10-08T09:03:01.218Z,36.10
2022-10-08T09:04:06.275Z,36.18
2022-10-08T09:05:15.012Z,34.96
2022-10-08T09:06:21.984Z,35.26
2022-10-08T09:07:27.583Z,35.09
2022-10-08T09:08:41.039Z,35.14
2022-10-08T09:09:45.968Z,34.95
2022-10-08T09:10:51.259Z,35.44
2022-10-08T09:11:56.017Z,36.55
2022-10-08T09:13:00.878Z,39.08
2022-10-08T09:14:10.965Z,37.03
2022-10-08T09:15:22.617Z,37.42
2022-10-08T09:16:27.902Z,38.34
2022-10-08T09:17:36.418Z,36.53
2022-10-08T09:18:42.217Z,36.15
2022-10-08T09:19:46.243Z,36.46
2022-10-08T09:20:50.514Z,36.07
2022-10-08T09:21:55.031Z,35.62
2022-10-08T09:23:00.930Z,35.89
2022-10-08T09:24:03.295Z,35.62
2022-10-08T09:25:08.784Z,37.40
2022-10-08T09:26:33.910Z,37.88
2022-10-08T09:27:47.343Z,38.04
2022-10-08T09:28:55.648Z,39.04
2022-10-08T09:30:00.200Z,37.53
2022-10-08T09:31:23.750Z,38.06
2022-10-08T09:32:27.156Z,38.78
2022-10-08T09:33:32.506Z,38.56
2022-10-08T09:34:38.861Z,39.86
2022-10-08T09:35:47.781Z,36.60
2022-10-08T09:36:51.295Z,36.95
2022-10-08T09:37:59.822Z,37.45
2022-10-08T09:39:04.615Z,37.59
2022-10-08T09:40:16.100Z,38.77
2022-10-08T09:41:20.995Z,37.09
2022-10-08T09:42:24.274Z,37.74
2022-10-08T09:43:27.691Z,36.95
2022-10-08T09:44:32.979Z,37.53
2022-10-08T09:45:50.136Z,36.79
2022-10-08T09:46:55.638Z,37.61
2022-10-08T09:48:19.111Z,38.87
2022-10-08T09:49:36.186Z,38.10
2022-10-08T09:50:44.687Z,36.95
2022-10-08T09:51:49.463Z,36.73
2022-10-08T09:52:54.983Z,37.60
2022-10-08T09:54:00.058Z,39.04
2022-10-08T09:55:04.144Z,37.07
2022-10-08T09:56:07.336Z,36.58
2022-10-08T09:57:12.618Z,37.28
2022-10-08T09:58:19.058Z,36.57
2022-10-08T09:59:23.740Z,36.34
2022-10-08T10:00:29.752Z,35.84
2022-10-08T10:01:34.475Z,36.10
2022-10-08T10:02:38.601Z,38.92
2022-10-08T10:03:44.015Z,36.83
2022-10-08T10:04:49.726Z,37.41
2022-10-08T10:05:54.339Z,38.28
2022-10-08T10:06:58.066Z,37.17
2022-10-08T10:08:01.562Z,37.25
2022-10-08T10:09:18.745Z,36.97
2022-10-08T10:10:26.015Z,36.47
2022-10-08T10:11:30.143Z,38.68
2022-10-08T10:12:34.277Z,38.35
2022-10-08T10:13:40.326Z,38.03
2022-10-08T10:14:51.948Z,37.99
2022-10-08T10:16:01.817Z,37.99
2022-10-08T10:17:16.673Z,37.88
2022-10-08T10:18:23.038Z,38.26
2022-10-08T10:19:27.275Z,38.10
2022-10-08T10:20:45.374Z,38.17
2022-10-08T10:21:50.683Z,38.57
2022-10-08T10:23:01.804Z,38.12
2022-10-08T10:24:05.919Z,38.19
2022-10-08T10:25:10.982Z,38.60
2022-10-08T10:26:17.660Z,38.93
2022-10-08T10:27:43.397Z,37.95
2022-10-08T10:28:49.263Z,38.95
2022-10-08T10:30:03.113Z,37.72
2022-10-08T10:31:11.031Z,38.95
2022-10-08T10:32:21.053Z,39.74
2022-10-08T10:33:29.098Z,39.65
2022-10-08T10:34:37.642Z,39.45
2022-10-08T10:35:42.702Z,39.47
2022-10-08T10:36:51.035Z,38.59
2022-10-08T10:38:14.584Z,38.17
2022-10-08T10:39:33.337Z,37.78
2022-10-08T10:40:39.472Z,38.94
2022-10-08T10:41:48.922Z,38.14
2022-10-08T10:43:09.871Z,38.22
2022-10-08T10:44:14.775Z,36.85
2022-10-08T10:45:22.615Z,35.90
2022-10-08T10:46:32.873Z,37.78
2022-10-08T10:47:37.495Z,37.40
2022-10-08T10:48:41.645Z,38.35
2022-10-08T10:49:45.422Z,38.66
2022-10-08T10:50:59.367Z,37.70
2022-10-08T10:52:09.548Z,37.83
2022-10-08T10:53:31.135Z,36.83
2022-10-08T10:54:43.850Z,37.43
2022-10-08T10:56:07.283Z,38.63
2022-10-08T10:57:16.847Z,37.74
2022-10-08T10:58:22.232Z,38.68
2022-10-08T10:59:43.697Z,38.38
2022-10-08T11:00:48.772Z,38.77
2022-10-08T11:02:04.321Z,38.91
2022-10-08T11:03:08.698Z,39.94
2022-10-08T11:04:32.294Z,38.65
2022-10-08T11:05:37.261Z,39.25
2022-10-08T11:06:45.367Z,38.82
2022-10-08T11:07:53.973Z,39.37
2022-10-08T11:09:07.202Z,38.72
2022-10-08T11:10:28.977Z,39.21
2022-10-08T11:11:34.164Z,40.02
2022-10-08T11:12:50.200Z,38.53
2022-10-08T11:14:01.216Z,39.07
2022-10-08T11:15:11.311Z,40.17
2022-10-08T11:16:16.564Z,38.88
2022-10-08T11:17:28.063Z,38.03
2022-10-08T11:18:47.630Z,37.69
2022-10-08T11:19:59.252Z,38.02
2022-10-08T11:21:10.093Z,37.76
2022-10-08T11:22:14.319Z,37.45
2022-10-08T11:23:20.630Z,37.76
2022-10-08T11:24:27.909Z,38.00
2022-10-08T11:26:09.823Z,37.95
2022-10-08T11:27:05.838Z,38.04
2022-10-08T11:28:11.025Z,38.24
2022-10-08T11:29:21.421Z,38.75
2022-10-08T11:30:27.463Z,39.17
2022-10-08T11:31:35.817Z,38.06
2022-10-08T11:32:39.759Z,38.67
2022-10-08T11:33:44.906Z,38.33
2022-10-08T11:34:53.988Z,38.41
2022-10-08T11:36:14.401Z,39.65
2022-10-08T11:37:31.076Z,39.15
2022-10-08T11:38:35.616Z,39.31
2022-10-08T11:39:46.965Z,38.58
2022-10-08T11:40:55.694Z,38.85
2022-10-08T11:42:18.719Z,38.85
2022-10-08T11:43:27.796Z,38.69
2022-10-08T11:44:31.416Z,38.00
2022-10-08T11:45:41.873Z,38.96
2022-10-08T11:46:46.699Z,39.68
2022-10-08T11:47:54.855Z,38.82
2022-10-08T11:49:06.488Z,39.68
2022-10-08T11:50:11.778Z,40.07
2022-10-08T11:51:23.782Z,39.21
2022-10-08T11:52:31.003Z,38.71
2022-10-08T11:53:34.190Z,39.13
2022-10-08T11:54:39.691Z,39.04
2022-10-08T11:55:48.406Z,37.67
2022-10-08T11:56:54.480Z,39.29
2022-10-08T11:58:09.359Z,38.68
2022-10-08T11:59:11.363Z,39.66
2022-10-08T12:00:25.827Z,39.80
2022-10-08T12:01:28.180Z,39.81
2022-10-08T12:02:32.926Z,39.50
2022-10-08T12:03:39.316Z,39.62
2022-10-08T12:04:46.926Z,38.39
2022-10-08T12:05:53.555Z,38.19
2022-10-08T12:07:08.283Z,38.10
2022-10-08T12:08:10.739Z,38.72
2022-10-08T12:09:24.409Z,39.90
2022-10-08T12:10:31.639Z,39.03
2022-10-08T12:11:37.432Z,38.21
2022-10-08T12:12:50.939Z,38.49
2022-10-08T12:14:13.519Z,37.04
2022-10-08T12:15:30.886Z,36.87
2022-10-08T12:16:51.832Z,35.96
2022-10-08T12:17:56.614Z,36.06
2022-10-08T12:19:01.766Z,37.34
2022-10-08T12:20:07.253Z,36.45
2022-10-08T12:21:19.002Z,37.13
2022-10-08T12:22:24.595Z,36.84
2022-10-08T12:23:33.961Z,36.18
2022-10-08T12:24:43.775Z,35.70
2022-10-08T12:25:49.941Z,36.61
2022-10-08T12:27:11.802Z,36.79
2022-10-08T12:28:24.053Z,36.96
2022-10-08T12:29:33.613Z,36.27
2022-10-08T12:30:45.636Z,36.93
2022-10-08T12:31:51.377Z,36.84
2022-10-08T12:32:55.479Z,37.88
2022-10-08T12:34:02.011Z,37.13
2022-10-08T12:35:06.693Z,37.01
2022-10-08T12:36:16.754Z,36.00
2022-10-08T12:37:26.522Z,36.80
2022-10-08T12:38:32.826Z,37.44
2022-10-08T12:39:37.543Z,37.67
2022-10-08T12:40:42.364Z,37.48
2022-10-08T12:41:53.379Z,36.53
2022-10-08T12:42:58.984Z,36.27
2022-10-08T12:44:23.266Z,37.23
2022-10-08T12:45:28.754Z,36.88
2022-10-08T12:46:44.982Z,37.76
2022-10-08T12:47:52.695Z,37.46
2022-10-08T12:49:07.062Z,37.35
2022-10-08T12:50:30.818Z,36.52
2022-10-08T12:51:38.782Z,36.47
2022-10-08T12:52:42.226Z,36.74
2022-10-08T12:53:47.506Z,36.69
2022-10-08T12:54:52.507Z,37.26
2022-10-08T12:55:57.223Z,37.71
2022-10-08T12:57:02.502Z,36.64
2022-10-08T12:58:07.689Z,37.87
2022-10-08T12:59:12.342Z,37.09
2022-10-08T13:00:23.271Z,38.10
2022-10-08T13:01:29.816Z,37.15
2022-10-08T13:02:41.144Z,36.89
2022-10-08T13:03:44.766Z,37.64
2022-10-08T13:04:51.163Z,37.30
2022-10-08T13:05:56.496Z,37.65
2022-10-08T13:07:00.488Z,37.90
2022-10-08T13:08:21.743Z,37.48
2022-10-08T13:09:29.949Z,36.98
2022-10-08T13:10:32.294Z,36.05
2022-10-08T13:11:52.180Z,36.81
2022-10-08T13:13:05.985Z,37.31
2022-10-08T13:14:11.334Z,37.15
2022-10-08T13:15:26.839Z,38.05
2022-10-08T13:16:31.340Z,37.26
2022-10-08T13:17:39.915Z,37.24
2022-10-08T13:18:44.678Z,37.85
2022-10-08T13:19:47.545Z,38.07
2022-10-08T13:21:06.988Z,38.40
2022-10-08T13:22:26.632Z,37.78
2022-10-08T13:23:33.687Z,37.94
2022-10-08T13:24:38.443Z,38.10
2022-10-08T13:25:41.116Z,38.69
2022-10-08T13:26:46.387Z,38.63
2022-10-08T13:27:52.085Z,38.45
2022-10-08T13:29:13.166Z,38.98
2022-10-08T13:30:24.884Z,39.44
2022-10-08T13:31:31.479Z,39.03
2022-10-08T13:32:35.985Z,39.32
2022-10-08T13:33:38.656Z,39.74
2022-10-08T13:34:45.084Z,38.75
2022-10-08T13:35:52.792Z,38.96
2022-10-08T13:36:57.009Z,38.10
2022-10-08T13:38:01.558Z,38.30
2022-10-08T13:39:04.212Z,38.67
2022-10-08T13:40:14.515Z,38.95
2022-10-08T13:41:24.392Z,38.94
2022-10-08T13:42:32.294Z,38.95
2022-10-08T13:43:35.778Z,39.18
2022-10-08T13:44:43.894Z,39.33
2022-10-08T13:45:47.643Z,38.40
2022-10-08T13:46:52.243Z,39.21
2022-10-08T13:47:56.077Z,39.85
2022-10-08T13:48:59.582Z,38.92
2022-10-08T13:50:03.399Z,39.86
2022-10-08T13:51:07.047Z,40.13
2022-10-08T13:52:12.395Z,40.17
2022-10-08T13:53:17.763Z,39.89
2022-10-08T13:54:25.453Z,39.83
2022-10-08T13:55:34.785Z,40.39
2022-10-08T13:56:37.832Z,40.43
2022-10-08T13:57:42.131Z,40.35
2022-10-08T13:58:48.920Z,40.04
2022-10-08T13:59:51.995Z,40.64
2022-10-08T14:00:54.365Z,40.42
2022-10-08T14:01:59.063Z,40.72
2022-10-08T14:03:04.354Z,40.67
2022-10-08T14:04:07.977Z,40.81
2022-10-08T14:05:11.585Z,41.02
2022-10-08T14:06:16.638Z,41.29
2022-10-08T14:07:21.007Z,41.70
2022-10-08T14:08:26.381Z,41.41
2022-10-08T14:09:32.221Z,41.84
2022-10-08T14:10:37.668Z,41.59
2022-10-08T14:11:42.230Z,41.82
2022-10-08T14:12:45.865Z,41.99
2022-10-08T14:13:49.335Z,42.16
2022-10-08T14:14:53.572Z,41.45
2022-10-08T14:15:57.111Z,41.68
2022-10-08T14:16:59.433Z,42.29
2022-10-08T14:18:04.264Z,42.91
2022-10-08T14:19:11.989Z,42.35
2022-10-08T14:20:15.696Z,42.11
2022-10-08T14:21:19.406Z,42.66
2022-10-08T14:22:22.496Z,43.07
2022-10-08T14:23:26.126Z,42.54
2022-10-08T14:24:30.552Z,43.10
2022-10-08T14:25:33.728Z,42.50
2022-10-08T14:26:37.028Z,43.56
2022-10-08T14:27:40.291Z,43.62
2022-10-08T14:28:43.513Z,43.96
2022-10-08T14:29:47.122Z,43.25
2022-10-08T14:30:50.533Z,44.13
2022-10-08T14:31:54.847Z,44.24
2022-10-08T14:33:00.571Z,43.63
2022-10-08T14:34:04.915Z,44.32
2022-10-08T14:35:09.073Z,45.11
2022-10-08T14:36:20.371Z,44.79
2022-10-08T14:37:27.539Z,43.69
2022-10-08T14:38:33.631Z,44.00
2022-10-08T14:39:37.059Z,45.02
2022-10-08T14:40:40.496Z,44.88
2022-10-08T14:41:46.777Z,45.45
2022-10-08T14:42:50.842Z,45.02
2022-10-08T14:43:56.628Z,45.48